createdAt,value
2019-03-27T00:02:02.493Z,1.70
2019-03-27T00:04:32.746Z,1.80
2019-03-27T00:07:03.074Z,1.80
2019-03-27T00:09:33.151Z,1.90
2019-03-27T00:12:03.205Z,2.00
2019-03-27T00:14:33.219Z,2.00
2019-03-27T00:17:03.236Z,2.10
2019-03-27T00:19:33.288Z,2.20
2019-03-27T00:22:03.323Z,2.30
2019-03-27T00:24:33.380Z,2.40
2019-03-27T00:27:03.561Z,2.40
2019-03-27T00:29:33.844Z,2.50
2019-03-27T00:32:12.581Z,2.60
2019-03-27T00:34:42.872Z,2.70
2019-03-27T00:37:13.241Z,2.80
2019-03-27T00:39:43.726Z,2.90
2019-03-27T00:42:14.109Z,3.00
2019-03-27T00:44:47.165Z,3.10
2019-03-27T00:47:17.264Z,3.10
2019-03-27T00:49:47.461Z,3.20
2019-03-27T00:52:17.535Z,3.30
2019-03-27T00:54:47.609Z,3.30
2019-03-27T00:57:17.712Z,3.40
2019-03-27T00:59:47.733Z,3.50
2019-03-27T01:02:17.732Z,3.60
2019-03-27T01:04:47.740Z,3.60
2019-03-27T01:07:17.725Z,3.70
2019-03-27T01:09:47.715Z,3.80
2019-03-27T01:12:17.740Z,3.80
2019-03-27T01:14:47.759Z,3.90
2019-03-27T01:17:17.736Z,3.90
2019-03-27T01:19:47.768Z,4.00
2019-03-27T01:22:17.791Z,4.00
2019-03-27T01:24:48.684Z,4.00
2019-03-27T01:27:18.671Z,4.10
2019-03-27T01:29:48.684Z,4.20
2019-03-27T01:32:18.683Z,4.20
2019-03-27T01:34:48.698Z,4.30
2019-03-27T01:37:18.698Z,4.30
2019-03-27T01:39:48.748Z,4.30
2019-03-27T01:42:18.755Z,4.40
2019-03-27T01:44:48.767Z,4.40
2019-03-27T01:47:18.760Z,4.50
2019-03-27T01:49:48.772Z,4.50
2019-03-27T01:52:18.755Z,4.50
2019-03-27T01:54:48.829Z,4.50
2019-03-27T01:57:18.808Z,4.60
2019-03-27T01:59:48.787Z,4.60
2019-03-27T02:02:18.813Z,4.60
2019-03-27T02:04:48.795Z,4.60
2019-03-27T02:07:18.778Z,4.70
2019-03-27T02:09:48.772Z,4.70
2019-03-27T02:12:18.789Z,4.70
2019-03-27T02:14:48.767Z,4.70
2019-03-27T02:17:18.744Z,4.70
2019-03-27T02:19:48.743Z,4.80
2019-03-27T02:22:18.756Z,4.80
2019-03-27T02:24:48.848Z,4.80
2019-03-27T02:27:18.864Z,4.80
2019-03-27T02:29:48.855Z,4.80
2019-03-27T02:32:20.954Z,4.80
2019-03-27T02:34:50.497Z,4.80
2019-03-27T02:37:20.485Z,4.80
2019-03-27T02:39:52.077Z,4.80
2019-03-27T02:42:22.088Z,4.90
2019-03-27T02:44:52.063Z,4.90
2019-03-27T02:47:22.088Z,4.90
2019-03-27T02:49:52.075Z,4.90
2019-03-27T02:52:22.066Z,4.90
2019-03-27T02:54:52.105Z,5.00
2019-03-27T02:57:22.084Z,5.00
2019-03-27T02:59:52.088Z,5.00
2019-03-27T03:02:22.109Z,5.00
2019-03-27T03:04:52.119Z,5.00
2019-03-27T03:07:22.115Z,5.00
2019-03-27T03:09:52.138Z,5.10
2019-03-27T03:12:22.128Z,5.10
2019-03-27T03:14:52.151Z,5.10
2019-03-27T03:17:22.198Z,5.10
2019-03-27T03:19:52.183Z,5.10
2019-03-27T03:22:22.205Z,5.10
2019-03-27T03:24:52.216Z,5.20
2019-03-27T03:27:22.232Z,5.20
2019-03-27T03:29:52.182Z,5.20
2019-03-27T03:32:22.200Z,5.20
2019-03-27T03:34:52.180Z,5.20
2019-03-27T03:37:22.146Z,5.20
2019-03-27T03:39:52.309Z,5.20
2019-03-27T03:42:23.192Z,5.20
2019-03-27T03:44:53.176Z,5.20
2019-03-27T03:47:23.177Z,5.20
2019-03-27T03:49:53.167Z,5.20
2019-03-27T03:52:24.011Z,5.20
2019-03-27T03:54:54.966Z,5.30
2019-03-27T03:57:27.627Z,5.30
2019-03-27T04:00:00.982Z,5.20
2019-03-27T04:02:34.449Z,5.30
2019-03-27T04:05:05.840Z,5.30
2019-03-27T04:07:35.841Z,5.30
2019-03-27T04:10:06.344Z,5.30
2019-03-27T04:12:36.367Z,5.30
2019-03-27T04:15:06.990Z,5.30
2019-03-27T04:17:36.984Z,5.30
2019-03-27T04:20:07.778Z,5.30
2019-03-27T04:22:37.940Z,5.40
2019-03-27T04:25:08.297Z,5.30
2019-03-27T04:27:38.328Z,5.40
2019-03-27T04:30:09.354Z,5.40
2019-03-27T04:32:39.331Z,5.40
2019-03-27T04:35:09.459Z,5.40
2019-03-27T04:37:39.480Z,5.40
2019-03-27T04:40:09.481Z,5.40
2019-03-27T04:42:39.635Z,5.50
2019-03-27T04:45:10.286Z,5.50
2019-03-27T04:47:40.295Z,5.50
2019-03-27T04:50:10.456Z,5.50
2019-03-27T04:52:40.464Z,5.50
2019-03-27T04:55:10.475Z,5.50
2019-03-27T04:57:40.479Z,5.50
2019-03-27T05:00:10.749Z,5.50
2019-03-27T05:02:40.753Z,5.50
2019-03-27T05:05:10.819Z,5.60
2019-03-27T05:07:40.913Z,5.60
2019-03-27T05:10:11.032Z,5.60
2019-03-27T05:12:41.096Z,5.60
2019-03-27T05:15:11.080Z,5.60
2019-03-27T05:17:46.223Z,5.60
2019-03-27T05:20:13.236Z,5.60
2019-03-27T05:22:43.316Z,5.70
2019-03-27T05:25:13.351Z,5.70
2019-03-27T05:27:43.389Z,5.70
2019-03-27T05:30:13.485Z,5.70
2019-03-27T05:32:43.457Z,5.70
2019-03-27T05:35:13.457Z,5.70
2019-03-27T05:37:43.467Z,5.70
2019-03-27T05:40:13.466Z,5.80
2019-03-27T05:42:43.496Z,5.80
2019-03-27T05:45:13.501Z,5.80
2019-03-27T05:47:43.480Z,5.80
2019-03-27T05:50:13.627Z,5.80
2019-03-27T05:52:43.624Z,5.80
2019-03-27T05:55:13.697Z,5.80
2019-03-27T05:57:43.780Z,5.90
2019-03-27T06:00:15.396Z,5.90
2019-03-27T06:02:45.385Z,5.90
2019-03-27T06:05:15.479Z,5.90
2019-03-27T06:07:45.523Z,5.90
2019-03-27T06:10:16.482Z,5.90
2019-03-27T06:12:46.640Z,6.00
2019-03-27T06:15:16.640Z,6.00
2019-03-27T06:17:46.659Z,6.00
2019-03-27T06:20:16.691Z,6.00
2019-03-27T06:22:46.716Z,6.00
2019-03-27T06:25:16.711Z,6.00
2019-03-27T06:27:46.703Z,6.00
2019-03-27T06:30:16.795Z,6.00
2019-03-27T06:32:46.809Z,6.00
2019-03-27T06:35:20.010Z,6.10
2019-03-27T06:37:48.480Z,6.10
2019-03-27T06:40:18.503Z,6.10
2019-03-27T06:42:48.679Z,6.20
2019-03-27T06:45:18.644Z,6.20
2019-03-27T06:47:48.612Z,6.30
2019-03-27T06:50:18.660Z,6.30
2019-03-27T06:52:48.648Z,6.30
2019-03-27T06:55:18.661Z,6.30
2019-03-27T06:57:48.668Z,6.40
2019-03-27T07:00:20.600Z,6.40
2019-03-27T07:02:50.604Z,6.40
2019-03-27T07:05:20.643Z,6.40
2019-03-27T07:07:50.656Z,6.40
2019-03-27T07:10:20.772Z,6.40
2019-03-27T07:12:55.577Z,6.40
2019-03-27T07:15:25.616Z,6.50
2019-03-27T07:17:55.665Z,6.50
2019-03-27T07:20:25.934Z,6.50
2019-03-27T07:22:55.933Z,6.60
2019-03-27T07:25:26.037Z,6.60
2019-03-27T07:27:56.105Z,6.70
2019-03-27T07:30:26.109Z,6.70
2019-03-27T07:32:56.122Z,6.80
2019-03-27T07:35:26.167Z,6.80
2019-03-27T07:37:56.232Z,7.00
2019-03-27T07:40:26.292Z,7.00
2019-03-27T07:42:56.480Z,7.00
2019-03-27T07:45:26.584Z,7.00
2019-03-27T07:47:56.682Z,7.10
2019-03-27T07:50:26.733Z,7.10
2019-03-27T07:52:56.756Z,7.10
2019-03-27T07:55:26.901Z,7.10
2019-03-27T07:57:57.027Z,7.10
2019-03-27T08:00:27.123Z,7.10
2019-03-27T08:02:57.127Z,7.10
2019-03-27T08:05:27.249Z,7.10
2019-03-27T08:07:57.265Z,7.10
2019-03-27T08:10:27.404Z,7.10
2019-03-27T08:12:57.613Z,7.20
2019-03-27T08:15:27.897Z,7.20
2019-03-27T08:17:58.060Z,7.20
2019-03-27T08:20:28.091Z,7.20
2019-03-27T08:22:58.154Z,7.20
2019-03-27T08:25:29.173Z,7.10
2019-03-27T08:27:59.225Z,7.10
2019-03-27T08:30:29.219Z,7.10
2019-03-27T08:32:59.196Z,7.20
2019-03-27T08:35:29.222Z,7.20
2019-03-27T08:37:59.301Z,7.20
2019-03-27T08:40:29.463Z,7.20
2019-03-27T08:42:59.595Z,7.30
2019-03-27T08:45:29.603Z,7.30
2019-03-27T08:47:59.671Z,7.30
2019-03-27T08:50:29.803Z,7.40
2019-03-27T08:52:59.803Z,7.40
2019-03-27T08:55:29.830Z,7.50
2019-03-27T08:57:59.897Z,7.50
2019-03-27T09:00:46.532Z,7.50
2019-03-27T09:03:16.644Z,7.60
2019-03-27T09:05:46.764Z,7.60
2019-03-27T09:08:16.755Z,7.60
2019-03-27T09:10:47.025Z,7.60
2019-03-27T09:17:01.987Z,7.70
2019-03-27T09:19:35.896Z,7.70
2019-03-27T09:22:03.650Z,7.80
2019-03-27T09:24:33.771Z,7.80
2019-03-27T09:27:04.530Z,7.80
2019-03-27T09:29:34.780Z,7.80
2019-03-27T09:32:05.136Z,7.90
2019-03-27T09:34:35.228Z,7.90
2019-03-27T09:37:05.214Z,7.90
2019-03-27T09:39:35.265Z,7.90
2019-03-27T09:42:05.249Z,7.90
2019-03-27T09:44:35.230Z,8.00
2019-03-27T09:47:05.316Z,8.00
2019-03-27T09:49:48.667Z,8.00
2019-03-27T09:52:06.958Z,8.00
2019-03-27T09:54:37.011Z,8.10
2019-03-27T09:57:06.996Z,8.10
2019-03-27T09:59:37.017Z,8.10
2019-03-27T10:02:07.060Z,8.20
2019-03-27T10:04:37.059Z,8.20
2019-03-27T10:07:07.204Z,8.30
2019-03-27T10:09:37.248Z,8.40
2019-03-27T10:12:07.257Z,8.40
2019-03-27T10:14:37.336Z,8.50
2019-03-27T10:17:07.404Z,8.60
2019-03-27T10:19:37.436Z,8.70
2019-03-27T10:22:07.420Z,8.80
2019-03-27T10:24:37.451Z,9.00
2019-03-27T10:27:07.456Z,9.10
2019-03-27T10:29:37.462Z,9.20
2019-03-27T10:32:07.617Z,9.20
2019-03-27T10:34:37.644Z,9.30
2019-03-27T10:37:07.620Z,9.30
2019-03-27T10:39:37.879Z,9.50
2019-03-27T10:42:07.864Z,9.60
2019-03-27T10:44:37.881Z,9.60
2019-03-27T10:47:07.919Z,9.70
2019-03-27T10:49:38.000Z,9.70
2019-03-27T10:52:08.008Z,9.80
2019-03-27T10:54:38.063Z,9.80
2019-03-27T10:57:08.061Z,9.90
2019-03-27T10:59:38.257Z,10.00
2019-03-27T11:02:09.572Z,10.00
2019-03-27T11:04:39.885Z,10.10
2019-03-27T11:07:10.163Z,10.30
2019-03-27T11:09:40.408Z,10.30
2019-03-27T11:12:10.813Z,10.40
2019-03-27T11:14:40.868Z,10.40
2019-03-27T11:17:10.920Z,10.50
2019-03-27T11:19:40.971Z,10.50
2019-03-27T11:22:10.946Z,10.40
2019-03-27T11:24:40.983Z,10.30
2019-03-27T11:27:10.986Z,10.30
2019-03-27T11:29:40.981Z,10.30
2019-03-27T11:32:11.060Z,10.30
2019-03-27T11:34:41.101Z,10.20
2019-03-27T11:37:11.228Z,10.20
2019-03-27T11:39:41.788Z,10.20
2019-03-27T11:42:11.876Z,10.10
2019-03-27T11:44:42.005Z,10.20
2019-03-27T11:47:12.177Z,10.20
2019-03-27T11:49:42.176Z,10.30
2019-03-27T11:52:12.200Z,10.30
2019-03-27T11:54:42.269Z,10.40
2019-03-27T11:57:12.312Z,10.40
2019-03-27T11:59:53.236Z,10.40
2019-03-27T12:02:14.114Z,10.40
2019-03-27T12:04:44.107Z,10.40
2019-03-27T12:07:14.260Z,10.40
2019-03-27T12:09:44.251Z,10.30
2019-03-27T12:12:14.271Z,10.30
2019-03-27T12:14:44.296Z,10.30
2019-03-27T12:17:14.363Z,10.30
2019-03-27T12:19:44.343Z,10.30
2019-03-27T12:22:14.339Z,10.30
2019-03-27T12:24:44.390Z,10.20
2019-03-27T12:27:14.381Z,10.20
2019-03-27T12:29:44.422Z,10.10
2019-03-27T12:32:14.518Z,10.10
2019-03-27T12:34:44.520Z,10.00
2019-03-27T12:37:14.505Z,9.90
2019-03-27T12:39:44.606Z,9.80
2019-03-27T12:42:14.596Z,9.80
2019-03-27T12:44:44.571Z,9.70
2019-03-27T12:47:14.604Z,9.70
2019-03-27T12:49:44.595Z,9.70
2019-03-27T12:52:14.600Z,9.60
2019-03-27T12:54:44.654Z,9.60
2019-03-27T12:57:14.640Z,9.70
2019-03-27T12:59:44.623Z,9.60
2019-03-27T13:02:14.656Z,9.50
2019-03-27T13:04:44.917Z,9.50
2019-03-27T13:07:14.917Z,9.50
2019-03-27T13:09:44.933Z,9.50
2019-03-27T13:12:14.918Z,9.50
2019-03-27T13:14:44.936Z,9.50
2019-03-27T13:17:14.959Z,9.50
2019-03-27T13:19:44.948Z,9.50
2019-03-27T13:22:15.095Z,9.50
2019-03-27T13:24:45.148Z,9.50
2019-03-27T13:27:15.150Z,9.50
2019-03-27T13:29:45.147Z,9.60
2019-03-27T13:32:15.223Z,9.70
2019-03-27T13:34:45.205Z,9.80
2019-03-27T13:37:15.182Z,9.80
2019-03-27T13:39:45.228Z,9.90
2019-03-27T13:42:16.600Z,10.00
2019-03-27T13:44:46.626Z,10.20
2019-03-27T13:47:16.763Z,10.20
2019-03-27T13:49:47.090Z,10.20
2019-03-27T13:52:17.338Z,10.20
2019-03-27T13:54:47.674Z,10.20
2019-03-27T13:57:17.756Z,10.30
2019-03-27T13:59:47.715Z,10.40
2019-03-27T14:02:17.872Z,10.60
2019-03-27T14:04:47.893Z,10.80
2019-03-27T14:07:18.005Z,11.00
2019-03-27T14:09:48.144Z,11.10
2019-03-27T14:12:19.675Z,11.20
2019-03-27T14:15:09.993Z,11.30
2019-03-27T14:17:40.430Z,11.40
2019-03-27T14:20:11.684Z,11.40
2019-03-27T14:22:41.706Z,11.40
2019-03-27T14:25:13.032Z,11.40
2019-03-27T14:27:45.402Z,11.20
2019-03-27T14:30:22.667Z,11.20
2019-03-27T14:32:52.707Z,11.30
2019-03-27T14:35:25.105Z,11.40
2019-03-27T14:37:58.067Z,11.40
2019-03-27T14:40:28.151Z,11.60
2019-03-27T14:42:58.137Z,11.70
2019-03-27T14:45:28.498Z,11.70
2019-03-27T14:47:58.559Z,11.80
2019-03-27T14:50:28.711Z,11.70
2019-03-27T14:52:58.727Z,11.70
2019-03-27T14:55:28.775Z,11.60
2019-03-27T14:57:58.762Z,11.50
2019-03-27T15:00:28.811Z,11.40
2019-03-27T15:02:58.862Z,11.40
2019-03-27T15:05:28.840Z,11.40
2019-03-27T15:07:58.876Z,11.40
2019-03-27T15:10:28.973Z,11.60
2019-03-27T15:12:58.990Z,11.70
2019-03-27T15:15:29.224Z,11.80
2019-03-27T15:17:59.194Z,11.80
2019-03-27T15:20:29.239Z,11.60
2019-03-27T15:22:59.305Z,11.40
2019-03-27T15:25:29.363Z,11.20
2019-03-27T15:27:59.389Z,11.10
2019-03-27T15:30:29.376Z,11.00
2019-03-27T15:32:59.516Z,10.90
2019-03-27T15:35:29.594Z,10.90
2019-03-27T15:37:59.644Z,10.90
2019-03-27T15:40:39.857Z,10.90
2019-03-27T15:43:10.115Z,10.90
2019-03-27T15:45:40.139Z,10.80
2019-03-27T15:48:10.267Z,10.70
2019-03-27T15:50:53.817Z,10.60
2019-03-27T15:53:12.032Z,10.60
2019-03-27T15:55:42.078Z,10.50
2019-03-27T15:58:12.160Z,10.50
2019-03-27T16:00:42.294Z,10.50
2019-03-27T16:03:12.593Z,10.50
2019-03-27T16:05:42.634Z,10.50
2019-03-27T16:08:13.010Z,10.50
2019-03-27T16:10:43.251Z,10.50
2019-03-27T16:13:17.433Z,10.40
2019-03-27T16:15:47.493Z,10.40
2019-03-27T16:18:17.497Z,10.30
2019-03-27T16:20:47.496Z,10.30
2019-03-27T16:23:17.571Z,10.20
2019-03-27T16:25:47.543Z,10.10
2019-03-27T16:28:17.612Z,10.00
2019-03-27T16:30:47.670Z,10.00
2019-03-27T16:33:17.657Z,10.00
2019-03-27T16:35:47.640Z,9.90
2019-03-27T16:38:17.667Z,9.80
2019-03-27T16:40:49.717Z,9.80
2019-03-27T16:43:20.323Z,9.70
2019-03-27T16:45:50.754Z,9.60
2019-03-27T16:48:20.778Z,9.60
2019-03-27T16:50:50.811Z,9.50
2019-03-27T16:53:20.916Z,9.50
2019-03-27T16:55:50.916Z,9.40
2019-03-27T16:58:21.191Z,9.30
2019-03-27T17:00:51.472Z,9.20
2019-03-27T17:03:21.488Z,9.10
2019-03-27T17:05:54.308Z,9.00
2019-03-27T17:08:23.683Z,8.90
2019-03-27T17:10:53.694Z,8.80
2019-03-27T17:13:23.692Z,8.70
2019-03-27T17:15:53.649Z,8.60
2019-03-27T17:18:23.667Z,8.50
2019-03-27T17:20:53.699Z,8.40
2019-03-27T17:23:23.676Z,8.40
2019-03-27T17:25:53.752Z,8.30
2019-03-27T17:28:23.923Z,8.20
2019-03-27T17:30:53.940Z,8.10
2019-03-27T17:33:23.919Z,8.00
2019-03-27T17:35:53.952Z,8.00
2019-03-27T17:38:23.992Z,7.90
2019-03-27T17:40:54.008Z,7.90
2019-03-27T17:43:24.078Z,7.80
2019-03-27T17:45:54.114Z,7.70
2019-03-27T17:48:24.115Z,7.70
2019-03-27T17:50:54.171Z,7.60
2019-03-27T17:53:31.676Z,7.50
2019-03-27T17:55:56.164Z,7.40
2019-03-27T17:58:26.308Z,7.40
2019-03-27T18:01:00.252Z,7.30
2019-03-27T18:03:30.316Z,7.20
2019-03-27T18:06:00.552Z,7.10
2019-03-27T18:08:30.547Z,7.00
2019-03-27T18:11:00.620Z,6.90
2019-03-27T18:13:30.652Z,6.80
2019-03-27T18:16:00.652Z,6.80
2019-03-27T18:18:30.665Z,6.70
2019-03-27T18:21:00.680Z,6.60
2019-03-27T18:23:35.265Z,6.60
2019-03-27T18:26:02.367Z,6.50
2019-03-27T18:28:35.399Z,6.40
2019-03-27T18:31:05.467Z,6.40
2019-03-27T18:33:37.924Z,6.40
2019-03-27T18:36:08.570Z,6.40
2019-03-27T18:38:40.263Z,6.40
2019-03-27T18:41:10.249Z,6.30
2019-03-27T18:43:40.293Z,6.30
2019-03-27T18:46:10.425Z,6.30
2019-03-27T18:48:40.468Z,6.30
2019-03-27T18:51:10.471Z,6.20
2019-03-27T18:53:40.526Z,6.20
2019-03-27T18:56:10.505Z,6.10
2019-03-27T18:58:40.557Z,6.10
2019-03-27T19:01:10.548Z,6.10
2019-03-27T19:03:40.539Z,6.10
2019-03-27T19:06:10.705Z,6.10
2019-03-27T19:08:40.847Z,6.10
2019-03-27T19:11:10.807Z,6.10
2019-03-27T19:13:40.868Z,6.10
2019-03-27T19:16:11.034Z,6.00
2019-03-27T19:18:41.174Z,6.00
2019-03-27T19:21:11.384Z,6.00
2019-03-27T19:23:41.558Z,5.90
2019-03-27T19:26:11.784Z,5.90
2019-03-27T19:28:41.839Z,5.90
2019-03-27T19:31:11.857Z,5.90
2019-03-27T19:33:41.861Z,5.90
2019-03-27T19:36:12.412Z,5.90
2019-03-27T19:38:42.421Z,5.90
2019-03-27T19:41:12.487Z,5.90
2019-03-27T19:43:42.560Z,5.90
2019-03-27T19:46:12.552Z,5.90
2019-03-27T19:48:42.624Z,5.90
2019-03-27T19:51:12.693Z,6.00
2019-03-27T19:53:42.721Z,6.00
2019-03-27T19:56:12.727Z,6.00
2019-03-27T19:58:42.848Z,6.00
2019-03-27T20:01:12.827Z,6.10
2019-03-27T20:03:42.794Z,6.10
2019-03-27T20:06:12.908Z,6.10
2019-03-27T20:08:42.891Z,6.10
2019-03-27T20:11:12.971Z,6.10
2019-03-27T20:13:43.024Z,6.20
2019-03-27T20:16:12.976Z,6.20
2019-03-27T20:18:42.983Z,6.20
2019-03-27T20:21:13.027Z,6.20
2019-03-27T20:23:43.169Z,6.10
2019-03-27T20:26:13.245Z,6.10
2019-03-27T20:28:43.340Z,6.10
2019-03-27T20:31:13.351Z,6.00
2019-03-27T20:33:43.347Z,6.00
2019-03-27T20:36:16.464Z,6.00
2019-03-27T20:38:46.445Z,5.90
2019-03-27T20:41:16.541Z,5.90
2019-03-27T20:43:46.535Z,5.90
2019-03-27T20:46:24.958Z,5.90
2019-03-27T20:48:48.333Z,5.80
2019-03-27T20:51:19.680Z,5.80
2019-03-27T20:53:49.803Z,5.80
2019-03-27T20:56:19.855Z,5.80
2019-03-27T20:58:51.031Z,5.80
2019-03-27T21:01:24.088Z,5.80
2019-03-27T21:03:54.065Z,5.80
2019-03-27T21:06:24.048Z,5.80
2019-03-27T21:08:54.519Z,5.70
2019-03-27T21:11:24.551Z,5.70
2019-03-27T21:13:54.580Z,5.70
2019-03-27T21:16:24.555Z,5.60
2019-03-27T21:18:54.596Z,5.60
2019-03-27T21:21:24.587Z,5.50
2019-03-27T21:23:54.587Z,5.60
2019-03-27T21:26:24.689Z,5.60
2019-03-27T21:28:54.668Z,5.60
2019-03-27T21:31:24.724Z,5.60
2019-03-27T21:33:57.597Z,5.60
2019-03-27T21:36:26.580Z,5.60
2019-03-27T21:38:56.704Z,5.60
2019-03-27T21:41:26.744Z,5.60
2019-03-27T21:43:56.735Z,5.60
2019-03-27T21:46:26.877Z,5.60
2019-03-27T21:48:56.946Z,5.60
2019-03-27T21:51:27.000Z,5.60
2019-03-27T21:53:57.328Z,5.50
2019-03-27T21:56:27.604Z,5.50
2019-03-27T21:58:57.992Z,5.40
2019-03-27T22:01:30.217Z,5.30
2019-03-27T22:04:00.297Z,5.30
2019-03-27T22:06:30.403Z,5.20
2019-03-27T22:09:00.361Z,5.10
2019-03-27T22:11:30.428Z,5.10
2019-03-27T22:14:00.396Z,5.00
2019-03-27T22:16:30.393Z,4.90
2019-03-27T22:19:00.499Z,4.90
2019-03-27T22:21:30.480Z,4.80
2019-03-27T22:24:00.450Z,4.80
2019-03-27T22:26:30.575Z,4.70
2019-03-27T22:29:00.596Z,4.70
2019-03-27T22:31:30.580Z,4.70
2019-03-27T22:34:00.619Z,4.70
2019-03-27T22:36:30.755Z,4.60
2019-03-27T22:39:00.756Z,4.60
2019-03-27T22:41:30.867Z,4.70
2019-03-27T22:44:00.887Z,4.70
2019-03-27T22:46:30.936Z,4.80
2019-03-27T22:49:00.966Z,4.90
2019-03-27T22:51:31.028Z,4.90
2019-03-27T22:54:00.994Z,4.90
2019-03-27T22:56:31.031Z,4.90
2019-03-27T22:59:01.003Z,4.90
2019-03-27T23:01:44.870Z,5.00
2019-03-27T23:04:14.872Z,5.00
2019-03-27T23:06:44.854Z,5.00
2019-03-27T23:09:14.860Z,4.90
2019-03-27T23:11:45.119Z,4.90
2019-03-27T23:14:15.142Z,4.80
2019-03-27T23:16:45.159Z,4.80
2019-03-27T23:19:15.194Z,4.70
2019-03-27T23:21:45.168Z,4.60
2019-03-27T23:24:16.300Z,4.60
2019-03-27T23:26:46.330Z,4.60
2019-03-27T23:29:16.320Z,4.50
2019-03-27T23:31:46.343Z,4.50
2019-03-27T23:34:17.366Z,4.50
2019-03-27T23:36:47.307Z,4.50
2019-03-27T23:39:17.334Z,4.40
2019-03-27T23:41:47.352Z,4.30
2019-03-27T23:44:17.379Z,4.20
2019-03-27T23:46:47.410Z,4.20
2019-03-27T23:49:17.380Z,4.20
2019-03-27T23:51:47.371Z,4.20
2019-03-27T23:54:17.411Z,4.20
2019-03-27T23:56:48.109Z,4.20
2019-03-27T23:59:18.387Z,4.20
